sensor_id;sensor_type;location;lat;lon;timestamp;P1;durP1;ratioP1;P2;durP2;ratioP2
24305;SDS011;12423;48.768;8.850;2023-03-01T00:01:29;14.10;;;7.90;;
24305;SDS011;12423;48.768;8.850;2023-03-01T00:03:31;18.58;;;8.63;;
24305;SDS011;12423;48.768;8.850;2023-03-01T00:05:32;20.55;;;7.57;;
24305;SDS011;12423;48.768;8.850;2023-03-01T00:07:33;14.70;;;7.43;;
24305;SDS011;12423;48.768;8.850;2023-03-01T00:09:35;18.73;;;8.23;;
24305;SDS011;12423;48.768;8.850;2023-03-01T00:11:37;19.27;;;9.43;;
24305;SDS011;12423;48.768;8.850;2023-03-01T00:13:38;16.52;;;7.70;;
24305;SDS011;12423;48.768;8.850;2023-03-01T00:15:40;14.73;;;7.72;;
24305;SDS011;12423;48.768;8.850;2023-03-01T00:17:42;17.63;;;8.30;;
24305;SDS011;12423;48.768;8.850;2023-03-01T00:19:42;14.27;;;8.13;;
24305;SDS011;12423;48.768;8.850;2023-03-01T00:21:43;16.73;;;8.07;;
24305;SDS011;12423;48.768;8.850;2023-03-01T00:23:44;20.63;;;7.95;;
24305;SDS011;12423;48.768;8.850;2023-03-01T00:25:45;14.10;;;8.13;;
24305;SDS011;12423;48.768;8.850;2023-03-01T00:27:47;15.57;;;7.90;;
24305;SDS011;12423;48.768;8.850;2023-03-01T00:29:49;14.98;;;7.65;;
24305;SDS011;12423;48.768;8.850;2023-03-01T00:31:50;17.23;;;8.25;;
24305;SDS011;12423;48.768;8.850;2023-03-01T00:33:52;20.80;;;8.63;;
24305;SDS011;12423;48.768;8.850;2023-03-01T00:35:58;14.27;;;7.65;;
24305;SDS011;12423;48.768;8.850;2023-03-01T00:38:00;14.50;;;8.07;;
24305;SDS011;12423;48.768;8.850;2023-03-01T00:40:01;20.13;;;9.27;;
24305;SDS011;12423;48.768;8.850;2023-03-01T00:42:02;16.10;;;8.13;;
24305;SDS011;12423;48.768;8.850;2023-03-01T00:44:03;17.85;;;8.30;;
24305;SDS011;12423;48.768;8.850;2023-03-01T00:46:14;14.80;;;7.68;;
24305;SDS011;12423;48.768;8.850;2023-03-01T00:48:18;19.05;;;8.05;;
24305;SDS011;12423;48.768;8.850;2023-03-01T00:50:19;19.88;;;8.82;;
24305;SDS011;12423;48.768;8.850;2023-03-01T00:52:21;26.48;;;11.90;;
24305;SDS011;12423;48.768;8.850;2023-03-01T00:54:22;23.85;;;11.52;;
24305;SDS011;12423;48.768;8.850;2023-03-01T00:56:23;22.50;;;10.85;;
24305;SDS011;12423;48.768;8.850;2023-03-01T00:58:24;19.80;;;8.82;;
24305;SDS011;12423;48.768;8.850;2023-03-01T01:00:26;12.90;;;7.13;;
24305;SDS011;12423;48.768;8.850;2023-03-01T01:02:27;17.17;;;8.43;;
24305;SDS011;12423;48.768;8.850;2023-03-01T01:04:28;13.07;;;6.97;;
24305;SDS011;12423;48.768;8.850;2023-03-01T01:06:31;14.75;;;7.60;;
24305;SDS011;12423;48.768;8.850;2023-03-01T01:08:33;16.73;;;7.60;;
24305;SDS011;12423;48.768;8.850;2023-03-01T01:10:34;16.92;;;7.75;;
24305;SDS011;12423;48.768;8.850;2023-03-01T01:12:36;15.90;;;7.80;;
24305;SDS011;12423;48.768;8.850;2023-03-01T01:14:37;17.50;;;8.23;;
24305;SDS011;12423;48.768;8.850;2023-03-01T01:16:39;19.92;;;8.68;;
24305;SDS011;12423;48.768;8.850;2023-03-01T01:18:40;20.98;;;8.73;;
24305;SDS011;12423;48.768;8.850;2023-03-01T01:20:42;12.98;;;7.47;;
24305;SDS011;12423;48.768;8.850;2023-03-01T01:22:43;17.50;;;7.60;;
24305;SDS011;12423;48.768;8.850;2023-03-01T01:24:45;14.18;;;7.00;;
24305;SDS011;12423;48.768;8.850;2023-03-01T01:26:46;17.45;;;7.97;;
24305;SDS011;12423;48.768;8.850;2023-03-01T01:28:47;14.60;;;8.05;;
24305;SDS011;12423;48.768;8.850;2023-03-01T01:30:49;13.60;;;7.30;;
24305;SDS011;12423;48.768;8.850;2023-03-01T01:32:50;17.23;;;8.32;;
24305;SDS011;12423;48.768;8.850;2023-03-01T01:34:50;14.65;;;8.30;;
24305;SDS011;12423;48.768;8.850;2023-03-01T01:36:52;15.27;;;7.03;;
24305;SDS011;12423;48.768;8.850;2023-03-01T01:38:54;15.27;;;7.45;;
24305;SDS011;12423;48.768;8.850;2023-03-01T01:40:55;18.42;;;9.00;;
24305;SDS011;12423;48.768;8.850;2023-03-01T01:42:56;16.80;;;7.70;;
24305;SDS011;12423;48.768;8.850;2023-03-01T01:47:28;15.25;;;7.50;;
24305;SDS011;12423;48.768;8.850;2023-03-01T01:51:39;14.85;;;7.57;;
24305;SDS011;12423;48.768;8.850;2023-03-01T01:53:42;18.83;;;8.65;;
24305;SDS011;12423;48.768;8.850;2023-03-01T01:55:46;16.10;;;7.40;;
24305;SDS011;12423;48.768;8.850;2023-03-01T01:57:53;15.77;;;7.70;;
24305;SDS011;12423;48.768;8.850;2023-03-01T01:59:57;16.98;;;8.23;;
24305;SDS011;12423;48.768;8.850;2023-03-01T02:02:02;16.58;;;7.80;;
24305;SDS011;12423;48.768;8.850;2023-03-01T02:04:04;17.17;;;8.00;;
24305;SDS011;12423;48.768;8.850;2023-03-01T02:06:21;16.25;;;7.70;;
24305;SDS011;12423;48.768;8.850;2023-03-01T02:08:30;14.10;;;7.32;;
24305;SDS011;12423;48.768;8.850;2023-03-01T02:10:34;17.38;;;8.68;;
24305;SDS011;12423;48.768;8.850;2023-03-01T02:12:35;16.45;;;8.00;;
24305;SDS011;12423;48.768;8.850;2023-03-01T02:14:37;19.45;;;8.13;;
24305;SDS011;12423;48.768;8.850;2023-03-01T02:16:38;18.52;;;7.90;;
24305;SDS011;12423;48.768;8.850;2023-03-01T02:18:40;15.02;;;8.32;;
24305;SDS011;12423;48.768;8.850;2023-03-01T02:21:01;19.88;;;8.70;;
24305;SDS011;12423;48.768;8.850;2023-03-01T02:23:07;17.83;;;8.20;;
24305;SDS011;12423;48.768;8.850;2023-03-01T02:27:33;19.13;;;8.13;;
24305;SDS011;12423;48.768;8.850;2023-03-01T02:29:41;14.30;;;7.78;;
24305;SDS011;12423;48.768;8.850;2023-03-01T02:31:44;16.35;;;7.65;;
24305;SDS011;12423;48.768;8.850;2023-03-01T02:33:48;16.85;;;7.10;;
24305;SDS011;12423;48.768;8.850;2023-03-01T02:35:49;18.20;;;7.70;;
24305;SDS011;12423;48.768;8.850;2023-03-01T02:37:50;16.80;;;8.15;;
24305;SDS011;12423;48.768;8.850;2023-03-01T02:39:53;17.08;;;8.27;;
24305;SDS011;12423;48.768;8.850;2023-03-01T02:41:59;15.32;;;7.68;;
24305;SDS011;12423;48.768;8.850;2023-03-01T02:44:01;14.85;;;8.25;;
24305;SDS011;12423;48.768;8.850;2023-03-01T02:46:22;23.33;;;8.02;;
24305;SDS011;12423;48.768;8.850;2023-03-01T02:48:25;15.15;;;7.78;;
24305;SDS011;12423;48.768;8.850;2023-03-01T02:52:44;17.10;;;7.57;;
24305;SDS011;12423;48.768;8.850;2023-03-01T02:55:09;15.52;;;7.45;;
24305;SDS011;12423;48.768;8.850;2023-03-01T02:57:13;17.05;;;8.82;;
24305;SDS011;12423;48.768;8.850;2023-03-01T02:59:16;14.32;;;7.85;;
24305;SDS011;12423;48.768;8.850;2023-03-01T03:01:20;17.00;;;7.78;;
24305;SDS011;12423;48.768;8.850;2023-03-01T03:03:21;14.80;;;7.78;;
24305;SDS011;12423;48.768;8.850;2023-03-01T03:05:24;15.10;;;7.65;;
24305;SDS011;12423;48.768;8.850;2023-03-01T03:07:33;17.90;;;8.38;;
24305;SDS011;12423;48.768;8.850;2023-03-01T03:09:35;21.90;;;8.88;;
24305;SDS011;12423;48.768;8.850;2023-03-01T03:11:36;22.40;;;7.07;;
24305;SDS011;12423;48.768;8.850;2023-03-01T03:13:37;17.60;;;8.48;;
24305;SDS011;12423;48.768;8.850;2023-03-01T03:15:48;15.57;;;7.55;;
24305;SDS011;12423;48.768;8.850;2023-03-01T03:17:50;17.17;;;8.23;;
24305;SDS011;12423;48.768;8.850;2023-03-01T03:19:52;15.82;;;8.20;;
24305;SDS011;12423;48.768;8.850;2023-03-01T03:21:53;15.73;;;7.88;;
24305;SDS011;12423;48.768;8.850;2023-03-01T03:23:54;15.43;;;8.55;;
24305;SDS011;12423;48.768;8.850;2023-03-01T03:25:55;17.85;;;8.80;;
24305;SDS011;12423;48.768;8.850;2023-03-01T03:27:56;17.45;;;8.60;;
24305;SDS011;12423;48.768;8.850;2023-03-01T03:29:58;16.38;;;7.80;;
24305;SDS011;12423;48.768;8.850;2023-03-01T03:31:59;17.58;;;8.82;;
24305;SDS011;12423;48.768;8.850;2023-03-01T03:34:00;16.48;;;8.13;;
24305;SDS011;12423;48.768;8.850;2023-03-01T03:36:01;18.45;;;8.40;;
24305;SDS011;12423;48.768;8.850;2023-03-01T03:38:04;16.63;;;8.20;;
24305;SDS011;12423;48.768;8.850;2023-03-01T03:40:07;20.23;;;10.20;;
24305;SDS011;12423;48.768;8.850;2023-03-01T03:42:15;23.45;;;9.23;;
24305;SDS011;12423;48.768;8.850;2023-03-01T03:44:16;16.48;;;7.78;;
24305;SDS011;12423;48.768;8.850;2023-03-01T03:46:17;19.15;;;7.90;;
24305;SDS011;12423;48.768;8.850;2023-03-01T03:48:18;19.33;;;9.18;;
24305;SDS011;12423;48.768;8.850;2023-03-01T03:50:20;17.17;;;8.65;;
24305;SDS011;12423;48.768;8.850;2023-03-01T03:52:21;16.73;;;8.48;;
24305;SDS011;12423;48.768;8.850;2023-03-01T03:54:21;15.63;;;7.78;;
24305;SDS011;12423;48.768;8.850;2023-03-01T03:56:22;18.92;;;9.10;;
24305;SDS011;12423;48.768;8.850;2023-03-01T03:58:26;18.35;;;7.90;;
24305;SDS011;12423;48.768;8.850;2023-03-01T04:00:27;19.65;;;10.07;;
24305;SDS011;12423;48.768;8.850;2023-03-01T04:02:28;15.73;;;8.77;;
24305;SDS011;12423;48.768;8.850;2023-03-01T04:04:29;19.55;;;9.98;;
24305;SDS011;12423;48.768;8.850;2023-03-01T04:06:30;16.80;;;8.98;;
24305;SDS011;12423;48.768;8.850;2023-03-01T04:08:31;17.15;;;9.85;;
24305;SDS011;12423;48.768;8.850;2023-03-01T04:10:34;15.43;;;9.60;;
24305;SDS011;12423;48.768;8.850;2023-03-01T04:12:35;17.15;;;8.55;;
24305;SDS011;12423;48.768;8.850;2023-03-01T04:14:37;19.65;;;7.25;;
24305;SDS011;12423;48.768;8.850;2023-03-01T04:16:38;17.00;;;8.10;;
24305;SDS011;12423;48.768;8.850;2023-03-01T04:18:39;18.65;;;9.32;;
24305;SDS011;12423;48.768;8.850;2023-03-01T04:20:40;19.88;;;9.32;;
24305;SDS011;12423;48.768;8.850;2023-03-01T04:22:41;15.18;;;8.63;;
24305;SDS011;12423;48.768;8.850;2023-03-01T04:24:42;17.00;;;9.73;;
24305;SDS011;12423;48.768;8.850;2023-03-01T04:26:43;19.35;;;8.70;;
24305;SDS011;12423;48.768;8.850;2023-03-01T04:28:45;15.88;;;8.65;;
24305;SDS011;12423;48.768;8.850;2023-03-01T04:30:46;17.75;;;8.90;;
24305;SDS011;12423;48.768;8.850;2023-03-01T04:32:47;16.77;;;9.60;;
24305;SDS011;12423;48.768;8.850;2023-03-01T04:34:48;21.40;;;9.75;;
24305;SDS011;12423;48.768;8.850;2023-03-01T04:36:49;18.27;;;9.38;;
24305;SDS011;12423;48.768;8.850;2023-03-01T04:38:50;25.52;;;9.68;;
24305;SDS011;12423;48.768;8.850;2023-03-01T04:40:52;19.15;;;9.73;;
24305;SDS011;12423;48.768;8.850;2023-03-01T04:42:53;20.88;;;9.77;;
24305;SDS011;12423;48.768;8.850;2023-03-01T04:44:54;17.75;;;9.00;;
24305;SDS011;12423;48.768;8.850;2023-03-01T04:46:55;19.73;;;10.20;;
24305;SDS011;12423;48.768;8.850;2023-03-01T04:48:56;22.90;;;10.93;;
24305;SDS011;12423;48.768;8.850;2023-03-01T04:51:00;21.50;;;10.48;;
24305;SDS011;12423;48.768;8.850;2023-03-01T04:53:01;22.70;;;10.55;;
24305;SDS011;12423;48.768;8.850;2023-03-01T04:55:03;19.48;;;9.63;;
24305;SDS011;12423;48.768;8.850;2023-03-01T04:57:04;22.05;;;10.55;;
24305;SDS011;12423;48.768;8.850;2023-03-01T04:59:05;19.00;;;10.30;;
24305;SDS011;12423;48.768;8.850;2023-03-01T05:01:13;18.60;;;9.77;;
24305;SDS011;12423;48.768;8.850;2023-03-01T05:03:15;19.90;;;9.45;;
24305;SDS011;12423;48.768;8.850;2023-03-01T05:05:37;19.88;;;9.38;;
24305;SDS011;12423;48.768;8.850;2023-03-01T05:07:39;19.77;;;9.93;;
24305;SDS011;12423;48.768;8.850;2023-03-01T05:09:39;18.05;;;9.45;;
24305;SDS011;12423;48.768;8.850;2023-03-01T05:11:40;22.75;;;11.10;;
24305;SDS011;12423;48.768;8.850;2023-03-01T05:13:42;22.45;;;11.15;;
24305;SDS011;12423;48.768;8.850;2023-03-01T05:15:43;19.33;;;9.77;;
24305;SDS011;12423;48.768;8.850;2023-03-01T05:17:44;18.48;;;9.80;;
24305;SDS011;12423;48.768;8.850;2023-03-01T05:19:45;19.98;;;11.05;;
24305;SDS011;12423;48.768;8.850;2023-03-01T05:21:46;19.92;;;10.73;;
24305;SDS011;12423;48.768;8.850;2023-03-01T05:24:13;22.55;;;10.65;;
24305;SDS011;12423;48.768;8.850;2023-03-01T05:26:15;23.00;;;9.93;;
24305;SDS011;12423;48.768;8.850;2023-03-01T05:28:18;23.58;;;11.38;;
24305;SDS011;12423;48.768;8.850;2023-03-01T05:30:20;24.08;;;11.23;;
24305;SDS011;12423;48.768;8.850;2023-03-01T05:32:22;25.42;;;12.05;;
24305;SDS011;12423;48.768;8.850;2023-03-01T05:34:23;21.05;;;11.52;;
24305;SDS011;12423;48.768;8.850;2023-03-01T05:36:29;24.05;;;10.60;;
24305;SDS011;12423;48.768;8.850;2023-03-01T05:38:30;24.55;;;11.70;;
24305;SDS011;12423;48.768;8.850;2023-03-01T05:40:32;21.10;;;12.07;;
24305;SDS011;12423;48.768;8.850;2023-03-01T05:42:34;23.52;;;11.65;;
24305;SDS011;12423;48.768;8.850;2023-03-01T05:44:35;25.23;;;11.88;;
24305;SDS011;12423;48.768;8.850;2023-03-01T05:46:36;26.48;;;12.18;;
24305;SDS011;12423;48.768;8.850;2023-03-01T05:48:37;27.20;;;12.65;;
24305;SDS011;12423;48.768;8.850;2023-03-01T05:50:40;29.63;;;14.30;;
24305;SDS011;12423;48.768;8.850;2023-03-01T05:52:43;24.35;;;12.20;;
24305;SDS011;12423;48.768;8.850;2023-03-01T05:54:44;24.67;;;11.23;;
24305;SDS011;12423;48.768;8.850;2023-03-01T05:56:45;24.83;;;12.18;;
24305;SDS011;12423;48.768;8.850;2023-03-01T05:58:47;23.00;;;12.48;;
24305;SDS011;12423;48.768;8.850;2023-03-01T06:00:48;21.13;;;10.30;;
24305;SDS011;12423;48.768;8.850;2023-03-01T06:02:50;22.17;;;11.02;;
24305;SDS011;12423;48.768;8.850;2023-03-01T06:04:52;22.15;;;10.93;;
24305;SDS011;12423;48.768;8.850;2023-03-01T06:06:53;23.73;;;11.57;;
24305;SDS011;12423;48.768;8.850;2023-03-01T06:08:54;22.42;;;11.50;;
24305;SDS011;12423;48.768;8.850;2023-03-01T06:10:55;25.50;;;12.73;;
24305;SDS011;12423;48.768;8.850;2023-03-01T06:12:56;22.38;;;10.85;;
24305;SDS011;12423;48.768;8.850;2023-03-01T06:14:57;20.33;;;10.07;;
24305;SDS011;12423;48.768;8.850;2023-03-01T06:16:58;25.77;;;10.73;;
24305;SDS011;12423;48.768;8.850;2023-03-01T06:18:59;20.00;;;10.88;;
24305;SDS011;12423;48.768;8.850;2023-03-01T06:21:00;23.02;;;11.23;;
24305;SDS011;12423;48.768;8.850;2023-03-01T06:23:01;17.77;;;10.52;;
24305;SDS011;12423;48.768;8.850;2023-03-01T06:25:02;24.85;;;11.70;;
24305;SDS011;12423;48.768;8.850;2023-03-01T06:27:04;21.98;;;11.27;;
24305;SDS011;12423;48.768;8.850;2023-03-01T06:29:05;21.80;;;10.90;;
24305;SDS011;12423;48.768;8.850;2023-03-01T06:31:06;23.83;;;11.90;;
24305;SDS011;12423;48.768;8.850;2023-03-01T06:33:09;24.42;;;10.88;;
24305;SDS011;12423;48.768;8.850;2023-03-01T06:35:10;23.88;;;11.48;;
24305;SDS011;12423;48.768;8.850;2023-03-01T06:37:13;23.23;;;10.85;;
24305;SDS011;12423;48.768;8.850;2023-03-01T06:39:14;22.05;;;10.43;;
24305;SDS011;12423;48.768;8.850;2023-03-01T06:41:15;23.77;;;11.07;;
24305;SDS011;12423;48.768;8.850;2023-03-01T06:43:16;27.25;;;11.70;;
24305;SDS011;12423;48.768;8.850;2023-03-01T06:45:17;23.15;;;10.73;;
24305;SDS011;12423;48.768;8.850;2023-03-01T06:47:19;20.63;;;9.93;;
24305;SDS011;12423;48.768;8.850;2023-03-01T06:49:20;22.65;;;11.00;;
24305;SDS011;12423;48.768;8.850;2023-03-01T06:51:21;20.17;;;10.63;;
24305;SDS011;12423;48.768;8.850;2023-03-01T06:53:22;23.15;;;9.68;;
24305;SDS011;12423;48.768;8.850;2023-03-01T06:55:23;20.73;;;11.30;;
24305;SDS011;12423;48.768;8.850;2023-03-01T06:57:24;23.70;;;11.30;;
24305;SDS011;12423;48.768;8.850;2023-03-01T06:59:25;20.00;;;10.82;;
24305;SDS011;12423;48.768;8.850;2023-03-01T07:01:26;20.52;;;10.93;;
24305;SDS011;12423;48.768;8.850;2023-03-01T07:03:27;22.55;;;10.77;;
24305;SDS011;12423;48.768;8.850;2023-03-01T07:05:29;26.17;;;12.55;;
24305;SDS011;12423;48.768;8.850;2023-03-01T07:07:30;27.98;;;13.02;;
24305;SDS011;12423;48.768;8.850;2023-03-01T07:09:31;22.33;;;11.60;;
24305;SDS011;12423;48.768;8.850;2023-03-01T07:11:33;27.95;;;12.23;;
24305;SDS011;12423;48.768;8.850;2023-03-01T07:13:34;23.27;;;10.60;;
24305;SDS011;12423;48.768;8.850;2023-03-01T07:15:35;18.80;;;9.88;;
24305;SDS011;12423;48.768;8.850;2023-03-01T07:17:36;27.73;;;11.95;;
24305;SDS011;12423;48.768;8.850;2023-03-01T07:19:37;28.17;;;11.35;;
24305;SDS011;12423;48.768;8.850;2023-03-01T07:21:38;25.85;;;11.77;;
24305;SDS011;12423;48.768;8.850;2023-03-01T07:23:39;21.10;;;9.55;;
24305;SDS011;12423;48.768;8.850;2023-03-01T07:25:40;20.83;;;11.23;;
24305;SDS011;12423;48.768;8.850;2023-03-01T07:27:41;22.40;;;11.18;;
24305;SDS011;12423;48.768;8.850;2023-03-01T07:29:42;21.63;;;11.23;;
24305;SDS011;12423;48.768;8.850;2023-03-01T07:31:43;23.35;;;10.88;;
24305;SDS011;12423;48.768;8.850;2023-03-01T07:33:44;21.60;;;11.27;;
24305;SDS011;12423;48.768;8.850;2023-03-01T07:35:45;18.15;;;10.23;;
24305;SDS011;12423;48.768;8.850;2023-03-01T07:37:46;22.13;;;11.30;;
24305;SDS011;12423;48.768;8.850;2023-03-01T07:39:47;22.23;;;11.25;;
24305;SDS011;12423;48.768;8.850;2023-03-01T07:41:49;23.27;;;11.00;;
24305;SDS011;12423;48.768;8.850;2023-03-01T07:43:55;19.23;;;9.52;;
24305;SDS011;12423;48.768;8.850;2023-03-01T07:45:59;19.38;;;11.27;;
24305;SDS011;12423;48.768;8.850;2023-03-01T07:48:01;20.13;;;10.07;;
24305;SDS011;12423;48.768;8.850;2023-03-01T07:50:03;23.48;;;10.38;;
24305;SDS011;12423;48.768;8.850;2023-03-01T07:52:04;20.77;;;10.18;;
24305;SDS011;12423;48.768;8.850;2023-03-01T07:54:05;27.27;;;10.93;;
24305;SDS011;12423;48.768;8.850;2023-03-01T07:56:10;21.77;;;11.25;;
24305;SDS011;12423;48.768;8.850;2023-03-01T07:58:13;25.23;;;11.18;;
24305;SDS011;12423;48.768;8.850;2023-03-01T08:00:14;20.92;;;10.07;;
24305;SDS011;12423;48.768;8.850;2023-03-01T08:02:15;19.05;;;10.48;;
24305;SDS011;12423;48.768;8.850;2023-03-01T08:04:16;24.85;;;10.82;;
24305;SDS011;12423;48.768;8.850;2023-03-01T08:06:17;19.27;;;10.60;;
24305;SDS011;12423;48.768;8.850;2023-03-01T08:08:18;23.95;;;11.55;;
24305;SDS011;12423;48.768;8.850;2023-03-01T08:10:19;30.90;;;12.65;;
24305;SDS011;12423;48.768;8.850;2023-03-01T08:12:21;29.50;;;13.35;;
24305;SDS011;12423;48.768;8.850;2023-03-01T08:14:21;33.75;;;13.50;;
24305;SDS011;12423;48.768;8.850;2023-03-01T08:16:23;29.02;;;13.88;;
24305;SDS011;12423;48.768;8.850;2023-03-01T08:18:24;23.75;;;11.70;;
24305;SDS011;12423;48.768;8.850;2023-03-01T08:20:25;20.83;;;10.80;;
24305;SDS011;12423;48.768;8.850;2023-03-01T08:22:26;25.65;;;11.95;;
24305;SDS011;12423;48.768;8.850;2023-03-01T08:24:28;27.73;;;12.23;;
24305;SDS011;12423;48.768;8.850;2023-03-01T08:26:29;21.55;;;10.65;;
24305;SDS011;12423;48.768;8.850;2023-03-01T08:28:30;26.77;;;12.00;;
24305;SDS011;12423;48.768;8.850;2023-03-01T08:30:31;18.38;;;10.05;;
24305;SDS011;12423;48.768;8.850;2023-03-01T08:32:37;22.90;;;11.20;;
24305;SDS011;12423;48.768;8.850;2023-03-01T08:34:39;22.52;;;11.00;;
24305;SDS011;12423;48.768;8.850;2023-03-01T08:36:41;20.58;;;11.23;;
24305;SDS011;12423;48.768;8.850;2023-03-01T08:38:44;23.20;;;11.45;;
24305;SDS011;12423;48.768;8.850;2023-03-01T08:40:45;24.17;;;10.80;;
24305;SDS011;12423;48.768;8.850;2023-03-01T08:42:46;23.73;;;11.07;;
24305;SDS011;12423;48.768;8.850;2023-03-01T08:44:47;27.45;;;12.45;;
24305;SDS011;12423;48.768;8.850;2023-03-01T08:46:48;25.42;;;10.55;;
24305;SDS011;12423;48.768;8.850;2023-03-01T08:48:50;22.98;;;10.68;;
24305;SDS011;12423;48.768;8.850;2023-03-01T08:50:51;26.02;;;11.63;;
24305;SDS011;12423;48.768;8.850;2023-03-01T08:52:52;20.33;;;10.95;;
24305;SDS011;12423;48.768;8.850;2023-03-01T08:54:53;23.63;;;10.55;;
24305;SDS011;12423;48.768;8.850;2023-03-01T08:56:54;23.42;;;11.95;;
24305;SDS011;12423;48.768;8.850;2023-03-01T08:58:55;26.15;;;10.60;;
24305;SDS011;12423;48.768;8.850;2023-03-01T09:00:56;23.13;;;12.02;;
24305;SDS011;12423;48.768;8.850;2023-03-01T09:02:57;24.05;;;11.88;;
24305;SDS011;12423;48.768;8.850;2023-03-01T09:04:58;22.05;;;11.10;;
24305;SDS011;12423;48.768;8.850;2023-03-01T09:06:59;24.25;;;11.57;;
24305;SDS011;12423;48.768;8.850;2023-03-01T09:09:00;22.20;;;11.23;;
24305;SDS011;12423;48.768;8.850;2023-03-01T09:11:02;29.05;;;13.77;;
24305;SDS011;12423;48.768;8.850;2023-03-01T09:13:04;24.80;;;12.63;;
24305;SDS011;12423;48.768;8.850;2023-03-01T09:15:05;22.17;;;11.45;;
24305;SDS011;12423;48.768;8.850;2023-03-01T09:17:06;26.20;;;12.48;;
24305;SDS011;12423;48.768;8.850;2023-03-01T09:19:07;26.08;;;12.95;;
24305;SDS011;12423;48.768;8.850;2023-03-01T09:21:12;25.42;;;12.32;;
24305;SDS011;12423;48.768;8.850;2023-03-01T09:23:15;22.38;;;11.35;;
24305;SDS011;12423;48.768;8.850;2023-03-01T09:25:16;22.60;;;11.75;;
24305;SDS011;12423;48.768;8.850;2023-03-01T09:27:17;22.38;;;11.00;;
24305;SDS011;12423;48.768;8.850;2023-03-01T09:29:19;28.65;;;12.98;;
24305;SDS011;12423;48.768;8.850;2023-03-01T09:31:20;22.67;;;11.63;;
24305;SDS011;12423;48.768;8.850;2023-03-01T09:33:22;19.92;;;10.45;;
24305;SDS011;12423;48.768;8.850;2023-03-01T09:35:23;22.48;;;11.65;;
24305;SDS011;12423;48.768;8.850;2023-03-01T09:37:24;21.77;;;11.80;;
24305;SDS011;12423;48.768;8.850;2023-03-01T09:39:26;25.85;;;12.55;;
24305;SDS011;12423;48.768;8.850;2023-03-01T09:43:47;24.95;;;12.48;;
24305;SDS011;12423;48.768;8.850;2023-03-01T09:45:59;26.48;;;12.57;;
24305;SDS011;12423;48.768;8.850;2023-03-01T09:48:05;24.80;;;12.10;;
24305;SDS011;12423;48.768;8.850;2023-03-01T09:50:20;21.63;;;10.10;;
24305;SDS011;12423;48.768;8.850;2023-03-01T09:54:29;24.52;;;11.98;;
24305;SDS011;12423;48.768;8.850;2023-03-01T10:01:55;23.35;;;10.65;;
24305;SDS011;12423;48.768;8.850;2023-03-01T10:06:42;23.92;;;11.57;;
24305;SDS011;12423;48.768;8.850;2023-03-01T10:08:50;24.00;;;10.88;;
24305;SDS011;12423;48.768;8.850;2023-03-01T10:10:57;22.73;;;12.43;;
24305;SDS011;12423;48.768;8.850;2023-03-01T10:12:59;22.40;;;11.45;;
24305;SDS011;12423;48.768;8.850;2023-03-01T10:15:05;20.67;;;11.57;;
24305;SDS011;12423;48.768;8.850;2023-03-01T10:19:52;22.67;;;11.85;;
24305;SDS011;12423;48.768;8.850;2023-03-01T10:21:53;25.98;;;11.88;;
24305;SDS011;12423;48.768;8.850;2023-03-01T10:24:01;19.23;;;11.40;;
24305;SDS011;12423;48.768;8.850;2023-03-01T10:28:31;21.65;;;11.13;;
24305;SDS011;12423;48.768;8.850;2023-03-01T10:30:45;24.27;;;13.45;;
24305;SDS011;12423;48.768;8.850;2023-03-01T10:32:47;23.02;;;11.63;;
24305;SDS011;12423;48.768;8.850;2023-03-01T10:34:52;26.30;;;12.50;;
24305;SDS011;12423;48.768;8.850;2023-03-01T10:36:55;20.75;;;12.18;;
24305;SDS011;12423;48.768;8.850;2023-03-01T10:38:58;24.20;;;11.65;;
24305;SDS011;12423;48.768;8.850;2023-03-01T10:41:00;25.35;;;13.23;;
24305;SDS011;12423;48.768;8.850;2023-03-01T10:43:10;20.88;;;11.05;;
24305;SDS011;12423;48.768;8.850;2023-03-01T10:47:23;22.75;;;11.23;;
24305;SDS011;12423;48.768;8.850;2023-03-01T10:49:26;19.42;;;10.93;;
24305;SDS011;12423;48.768;8.850;2023-03-01T10:51:27;21.33;;;11.27;;
24305;SDS011;12423;48.768;8.850;2023-03-01T10:55:37;24.73;;;12.68;;
24305;SDS011;12423;48.768;8.850;2023-03-01T10:57:40;27.38;;;14.05;;
24305;SDS011;12423;48.768;8.850;2023-03-01T10:59:42;23.27;;;12.20;;
24305;SDS011;12423;48.768;8.850;2023-03-01T11:01:42;25.42;;;12.00;;
24305;SDS011;12423;48.768;8.850;2023-03-01T11:03:43;32.33;;;13.38;;
24305;SDS011;12423;48.768;8.850;2023-03-01T11:05:51;24.52;;;11.52;;
24305;SDS011;12423;48.768;8.850;2023-03-01T11:07:53;20.05;;;11.40;;
24305;SDS011;12423;48.768;8.850;2023-03-01T11:09:57;21.38;;;12.27;;
24305;SDS011;12423;48.768;8.850;2023-03-01T11:11:59;20.70;;;13.60;;
24305;SDS011;12423;48.768;8.850;2023-03-01T11:16:13;22.92;;;13.38;;
24305;SDS011;12423;48.768;8.850;2023-03-01T11:18:21;18.65;;;12.00;;
24305;SDS011;12423;48.768;8.850;2023-03-01T11:20:27;22.52;;;12.82;;
24305;SDS011;12423;48.768;8.850;2023-03-01T11:22:32;21.02;;;13.10;;
24305;SDS011;12423;48.768;8.850;2023-03-01T11:24:40;19.05;;;12.38;;
24305;SDS011;12423;48.768;8.850;2023-03-01T11:26:45;21.57;;;13.30;;
24305;SDS011;12423;48.768;8.850;2023-03-01T11:28:51;20.17;;;13.45;;
24305;SDS011;12423;48.768;8.850;2023-03-01T11:31:02;20.73;;;13.00;;
24305;SDS011;12423;48.768;8.850;2023-03-01T11:33:11;20.35;;;12.30;;
24305;SDS011;12423;48.768;8.850;2023-03-01T11:35:20;20.17;;;13.27;;
24305;SDS011;12423;48.768;8.850;2023-03-01T11:37:38;21.42;;;13.73;;
24305;SDS011;12423;48.768;8.850;2023-03-01T11:39:46;18.27;;;13.35;;
24305;SDS011;12423;48.768;8.850;2023-03-01T11:41:53;17.77;;;12.70;;
24305;SDS011;12423;48.768;8.850;2023-03-01T11:44:14;19.15;;;12.48;;
24305;SDS011;12423;48.768;8.850;2023-03-01T11:48:36;18.88;;;12.98;;
24305;SDS011;12423;48.768;8.850;2023-03-01T11:50:50;20.23;;;13.60;;
24305;SDS011;12423;48.768;8.850;2023-03-01T11:52:58;17.17;;;11.93;;
24305;SDS011;12423;48.768;8.850;2023-03-01T12:02:40;20.05;;;12.95;;
24305;SDS011;12423;48.768;8.850;2023-03-01T12:07:21;17.77;;;13.07;;
24305;SDS011;12423;48.768;8.850;2023-03-01T12:09:47;20.42;;;13.00;;
24305;SDS011;12423;48.768;8.850;2023-03-01T12:16:59;17.23;;;12.90;;
24305;SDS011;12423;48.768;8.850;2023-03-01T12:36:34;16.02;;;11.82;;
24305;SDS011;12423;48.768;8.850;2023-03-01T12:41:03;19.92;;;12.43;;
24305;SDS011;12423;48.768;8.850;2023-03-01T12:43:08;16.38;;;12.25;;
24305;SDS011;12423;48.768;8.850;2023-03-01T12:45:34;18.17;;;12.43;;
24305;SDS011;12423;48.768;8.850;2023-03-01T12:47:52;22.20;;;13.23;;
24305;SDS011;12423;48.768;8.850;2023-03-01T12:50:12;16.60;;;12.30;;
24305;SDS011;12423;48.768;8.850;2023-03-01T12:52:26;17.38;;;13.15;;
24305;SDS011;12423;48.768;8.850;2023-03-01T12:54:29;17.48;;;12.40;;
24305;SDS011;12423;48.768;8.850;2023-03-01T12:56:34;19.33;;;12.13;;
24305;SDS011;12423;48.768;8.850;2023-03-01T12:58:40;16.13;;;11.65;;
24305;SDS011;12423;48.768;8.850;2023-03-01T13:01:00;18.73;;;12.07;;
24305;SDS011;12423;48.768;8.850;2023-03-01T13:07:44;18.67;;;12.70;;
24305;SDS011;12423;48.768;8.850;2023-03-01T13:11:02;18.67;;;11.57;;
24305;SDS011;12423;48.768;8.850;2023-03-01T13:14:45;18.88;;;11.48;;
24305;SDS011;12423;48.768;8.850;2023-03-01T13:16:47;16.50;;;12.80;;
24305;SDS011;12423;48.768;8.850;2023-03-01T13:18:49;17.05;;;12.15;;
24305;SDS011;12423;48.768;8.850;2023-03-01T13:21:06;19.30;;;11.75;;
24305;SDS011;12423;48.768;8.850;2023-03-01T13:23:24;16.38;;;12.20;;